Marshall, Alaska
Current Conditions -  °F | °C
As of 2:56 AM on Sunday 21 Dec 2014 (Local Time) from PADM Reporting Station
Clear Clear  
Wind Chill: -5°   Ceiling: Unl
Heat Index:   Visibility: 10mi
Dew Point:   Wind: 8mph
Humidity: 76%   Direction: 30°NNE
Pressure: 29.28"   Gusts: NA
Location:  61.88°N, 162.08°W
Report Text: PADM 211156Z AUTO 03007KT 10SM CLR M14/M17 A2928 RMK AO2 TSNO 53017 T11381172 11127 21150 SLP905 $
Loading
Personal Weather Stations






























Interactive Weather Map New forecast layout! Learn more

10-Day Weather Forecast

Advertisements
Track Severe Weather on mobile